createdAt,value
2018-12-05T00:00:43.724Z,21.17
2018-12-05T00:03:10.424Z,20.15
2018-12-05T00:05:37.112Z,18.50
2018-12-05T00:08:03.841Z,18.37
2018-12-05T00:10:30.536Z,18.05
2018-12-05T00:12:57.226Z,17.98
2018-12-05T00:15:23.946Z,18.20
2018-12-05T00:17:50.640Z,17.85
2018-12-05T00:20:17.356Z,16.70
2018-12-05T00:22:44.059Z,16.65
2018-12-05T00:25:10.763Z,17.85
2018-12-05T00:27:37.452Z,17.25
2018-12-05T00:30:04.526Z,17.15
2018-12-05T00:32:31.236Z,16.77
2018-12-05T00:34:57.929Z,17.05
2018-12-05T00:37:24.612Z,18.37
2018-12-05T00:39:51.330Z,18.23
2018-12-05T00:42:18.054Z,17.82
2018-12-05T00:44:44.758Z,18.30
2018-12-05T00:47:11.469Z,19.05
2018-12-05T00:49:43.696Z,19.82
2018-12-05T00:52:10.385Z,18.98
2018-12-05T00:54:37.086Z,18.62
2018-12-05T00:57:03.806Z,18.65
2018-12-05T00:59:30.662Z,19.50
2018-12-05T01:01:57.357Z,18.15
2018-12-05T01:04:24.058Z,18.62
2018-12-05T01:06:50.785Z,18.65
2018-12-05T01:09:17.494Z,17.77
2018-12-05T01:11:44.200Z,20.00
2018-12-05T01:14:10.911Z,19.32
2018-12-05T01:16:37.703Z,20.65
2018-12-05T01:19:04.456Z,19.05
2018-12-05T01:21:31.233Z,20.43
2018-12-05T01:23:58.025Z,18.02
2018-12-05T01:26:24.758Z,18.60
2018-12-05T01:28:51.497Z,19.57
2018-12-05T01:31:18.389Z,18.90
2018-12-05T01:33:45.087Z,19.77
2018-12-05T01:36:11.808Z,18.82
2018-12-05T01:38:38.504Z,20.15
2018-12-05T01:41:05.236Z,18.15
2018-12-05T01:43:37.816Z,20.02
2018-12-05T01:46:04.504Z,17.67
2018-12-05T01:48:31.233Z,19.70
2018-12-05T01:50:57.924Z,20.52
2018-12-05T01:53:24.613Z,18.37
2018-12-05T01:55:51.329Z,18.30
2018-12-05T01:58:18.015Z,18.20
2018-12-05T02:00:44.705Z,18.10
2018-12-05T02:03:11.426Z,17.70
2018-12-05T02:05:38.120Z,18.15
2018-12-05T02:08:04.818Z,18.65
2018-12-05T02:10:31.525Z,18.37
2018-12-05T02:12:58.246Z,18.05
2018-12-05T02:15:24.941Z,18.02
2018-12-05T02:17:51.660Z,17.95
2018-12-05T02:20:18.354Z,17.32
2018-12-05T02:22:45.088Z,17.75
2018-12-05T02:25:11.777Z,17.23
2018-12-05T02:27:38.491Z,16.87
2018-12-05T02:30:05.255Z,16.02
2018-12-05T02:32:32.018Z,16.97
2018-12-05T02:34:58.797Z,15.40
2018-12-05T02:37:25.501Z,16.12
2018-12-05T02:39:52.203Z,15.75
2018-12-05T02:42:18.919Z,15.48
2018-12-05T02:44:45.618Z,15.90
2018-12-05T02:47:12.312Z,16.73
2018-12-05T02:49:39.023Z,16.65
2018-12-05T02:52:05.731Z,16.77
2018-12-05T02:54:32.415Z,15.43
2018-12-05T02:56:59.145Z,16.37
2018-12-05T02:59:25.849Z,15.32
2018-12-05T03:01:52.542Z,16.70
2018-12-05T03:04:19.254Z,16.07
2018-12-05T03:06:45.940Z,16.25
2018-12-05T03:09:12.656Z,16.42
2018-12-05T03:11:39.347Z,16.27
2018-12-05T03:14:06.060Z,16.93
2018-12-05T03:16:32.778Z,16.97
2018-12-05T03:18:59.474Z,17.60
2018-12-05T03:21:26.189Z,16.97
2018-12-05T03:23:52.882Z,17.95
2018-12-05T03:26:19.582Z,17.70
2018-12-05T03:28:46.308Z,17.70
2018-12-05T03:31:13.003Z,17.27
2018-12-05T03:33:39.714Z,16.93
2018-12-05T03:36:06.424Z,16.45
2018-12-05T03:38:33.132Z,16.45
2018-12-05T03:40:59.839Z,18.00
2018-12-05T03:43:26.552Z,16.62
2018-12-05T03:45:53.262Z,17.57
2018-12-05T03:48:19.957Z,17.20
2018-12-05T03:50:46.711Z,16.65
2018-12-05T03:53:13.407Z,17.25
2018-12-05T03:55:40.108Z,16.45
2018-12-05T03:58:06.926Z,16.87
2018-12-05T04:00:33.634Z,15.93
2018-12-05T04:03:00.359Z,16.20
2018-12-05T04:05:27.117Z,16.07
2018-12-05T04:07:53.848Z,16.57
2018-12-05T04:10:20.721Z,18.17
2018-12-05T04:12:53.783Z,18.23
2018-12-05T04:15:21.082Z,17.35
2018-12-05T04:17:47.827Z,18.37
2018-12-05T04:20:15.327Z,18.65
2018-12-05T04:22:42.458Z,18.70
2018-12-05T04:25:09.564Z,20.15
2018-12-05T04:27:36.261Z,19.62
2018-12-05T04:30:03.556Z,20.30
2018-12-05T04:32:30.601Z,20.35
2018-12-05T04:34:57.346Z,20.17
2018-12-05T04:37:24.046Z,19.65
2018-12-05T04:39:50.756Z,20.65
2018-12-05T04:42:17.529Z,19.82
2018-12-05T04:44:44.245Z,21.25
2018-12-05T04:47:10.992Z,22.05
2018-12-05T04:49:42.788Z,21.65
2018-12-05T04:52:09.488Z,21.02
2018-12-05T04:54:36.243Z,21.82
2018-12-05T04:57:02.937Z,23.95
2018-12-05T04:59:29.969Z,25.75
2018-12-05T05:01:56.697Z,23.35
2018-12-05T05:04:23.398Z,21.73
2018-12-05T05:06:50.087Z,19.80
2018-12-05T05:09:16.832Z,22.48
2018-12-05T05:11:43.529Z,21.27
2018-12-05T05:14:10.261Z,22.22
2018-12-05T05:16:36.954Z,20.92
2018-12-05T05:19:03.645Z,20.27
2018-12-05T05:21:30.372Z,20.95
2018-12-05T05:23:57.191Z,20.75
2018-12-05T05:26:23.888Z,22.27
2018-12-05T05:28:50.641Z,21.20
2018-12-05T05:31:17.405Z,18.60
2018-12-05T05:33:44.096Z,19.02
2018-12-05T05:36:10.827Z,18.37
2018-12-05T05:38:37.522Z,18.23
2018-12-05T05:41:04.241Z,19.23
2018-12-05T05:43:30.964Z,19.60
2018-12-05T05:45:57.658Z,21.75
2018-12-05T05:48:24.585Z,22.07
2018-12-05T05:50:53.664Z,18.87
2018-12-05T05:53:20.514Z,21.48
2018-12-05T05:55:47.272Z,21.05
2018-12-05T05:58:13.965Z,22.02
2018-12-05T06:00:41.484Z,20.25
2018-12-05T06:03:08.233Z,21.70
2018-12-05T06:05:34.940Z,19.45
2018-12-05T06:08:01.642Z,19.45
2018-12-05T06:10:28.363Z,19.23
2018-12-05T06:12:55.065Z,19.20
2018-12-05T06:15:21.794Z,17.87
2018-12-05T06:17:48.480Z,19.77
2018-12-05T06:20:15.204Z,20.77
2018-12-05T06:22:41.887Z,23.22
2018-12-05T06:25:08.586Z,26.45
2018-12-05T06:27:35.298Z,22.67
2018-12-05T06:30:02.013Z,21.00
2018-12-05T06:32:28.769Z,17.62
2018-12-05T06:34:55.497Z,18.10
2018-12-05T06:37:22.191Z,19.65
2018-12-05T06:39:48.876Z,19.00
2018-12-05T06:42:15.586Z,16.80
2018-12-05T06:44:42.329Z,19.95
2018-12-05T06:47:09.053Z,16.52
2018-12-05T06:49:35.752Z,18.67
2018-12-05T06:52:02.468Z,18.30
2018-12-05T06:54:31.953Z,17.95
2018-12-05T06:57:01.348Z,15.90
2018-12-05T06:59:30.172Z,18.77
2018-12-05T07:01:58.276Z,20.08
2018-12-05T07:04:26.419Z,22.48
2018-12-05T07:06:54.726Z,19.17
2018-12-05T07:09:24.757Z,21.02
2018-12-05T07:11:52.935Z,18.73
2018-12-05T07:14:21.298Z,19.85
2018-12-05T07:16:49.344Z,18.62
2018-12-05T07:19:16.109Z,19.45
2018-12-05T07:21:44.002Z,16.97
2018-12-05T07:24:12.619Z,16.75
2018-12-05T07:26:41.637Z,17.95
2018-12-05T07:29:09.816Z,18.45
2018-12-05T07:31:38.082Z,18.02
2018-12-05T07:34:04.839Z,19.50
2018-12-05T07:36:31.560Z,20.08
2018-12-05T07:38:58.281Z,23.57
2018-12-05T07:41:24.995Z,25.32
2018-12-05T07:43:51.689Z,21.37
2018-12-05T07:46:18.377Z,19.67
2018-12-05T07:48:45.110Z,26.02
2018-12-05T07:51:11.800Z,26.50
2018-12-05T07:53:38.516Z,23.73
2018-12-05T07:56:05.212Z,19.85
2018-12-05T07:58:31.932Z,25.37
2018-12-05T08:00:58.658Z,26.27
2018-12-05T08:03:25.442Z,24.47
2018-12-05T08:05:52.140Z,27.13
2018-12-05T08:08:18.977Z,25.15
2018-12-05T08:10:45.664Z,23.45
2018-12-05T08:13:12.366Z,23.07
2018-12-05T08:15:39.085Z,29.20
2018-12-05T08:18:05.789Z,26.57
2018-12-05T08:20:32.502Z,23.20
2018-12-05T08:22:59.184Z,25.82
2018-12-05T08:25:25.878Z,23.25
2018-12-05T08:27:52.588Z,26.20
2018-12-05T08:30:19.275Z,24.50
2018-12-05T08:32:45.990Z,25.25
2018-12-05T08:35:12.701Z,24.50
2018-12-05T08:37:39.403Z,33.85
2018-12-05T08:40:06.112Z,31.62
2018-12-05T08:42:32.807Z,31.48
2018-12-05T08:44:59.495Z,33.75
2018-12-05T08:47:26.212Z,29.23
2018-12-05T08:49:52.909Z,27.00
2018-12-05T08:52:19.624Z,27.55
2018-12-05T08:54:46.322Z,26.95
2018-12-05T08:57:13.013Z,22.17
2018-12-05T08:59:39.733Z,24.52
2018-12-05T09:02:06.422Z,25.72
2018-12-05T09:04:33.113Z,28.75
2018-12-05T09:06:59.828Z,25.45
2018-12-05T09:09:26.533Z,23.55
2018-12-05T09:11:53.215Z,23.57
2018-12-05T09:14:19.938Z,25.80
2018-12-05T09:16:46.641Z,23.57
2018-12-05T09:19:13.357Z,20.17
2018-12-05T09:21:40.062Z,20.30
2018-12-05T09:24:06.822Z,23.45
2018-12-05T09:26:33.596Z,21.50
2018-12-05T09:29:00.294Z,17.65
2018-12-05T09:31:27.030Z,17.35
2018-12-05T09:33:53.724Z,22.80
2018-12-05T09:36:20.429Z,23.25
2018-12-05T09:38:47.239Z,21.27
2018-12-05T09:41:13.938Z,20.15
2018-12-05T09:43:40.660Z,20.23
2018-12-05T09:46:07.358Z,21.30
2018-12-05T09:48:34.048Z,19.55
2018-12-05T09:51:00.758Z,18.85
2018-12-05T09:53:27.463Z,18.90
2018-12-05T09:55:54.159Z,18.52
2018-12-05T09:58:20.881Z,19.25
2018-12-05T10:00:47.580Z,19.23
2018-12-05T10:03:14.272Z,18.82
2018-12-05T10:05:40.989Z,19.25
2018-12-05T10:08:07.692Z,19.57
2018-12-05T10:10:34.384Z,17.67
2018-12-05T10:13:01.087Z,20.17
2018-12-05T10:15:27.787Z,18.27
2018-12-05T10:17:54.486Z,17.95
2018-12-05T10:20:21.223Z,18.35
2018-12-05T10:22:47.926Z,16.25
2018-12-05T10:25:14.616Z,16.85
2018-12-05T10:27:41.324Z,17.15
2018-12-05T10:30:08.038Z,15.88
2018-12-05T10:32:34.769Z,17.30
2018-12-05T10:35:01.470Z,16.45
2018-12-05T10:37:28.184Z,17.23
2018-12-05T10:39:54.884Z,16.67
2018-12-05T10:42:21.584Z,17.87
2018-12-05T10:44:48.306Z,19.15
2018-12-05T10:47:15.011Z,23.87
2018-12-05T10:49:41.728Z,19.00
2018-12-05T10:52:08.418Z,17.52
2018-12-05T10:54:35.110Z,18.48
2018-12-05T10:57:01.837Z,22.07
2018-12-05T10:59:28.588Z,21.85
2018-12-05T11:02:01.109Z,21.77
2018-12-05T11:04:33.629Z,20.57
2018-12-05T11:07:16.097Z,20.43
2018-12-05T11:09:48.577Z,19.35
2018-12-05T11:12:21.148Z,21.35
2018-12-05T11:14:53.679Z,19.25
2018-12-05T11:17:26.153Z,19.75
2018-12-05T11:19:56.721Z,19.57
2018-12-05T11:22:29.161Z,20.50
2018-12-05T11:24:57.842Z,19.77
2018-12-05T11:27:24.541Z,20.85
2018-12-05T11:29:51.280Z,19.95
2018-12-05T11:32:17.974Z,20.30
2018-12-05T11:34:44.675Z,21.52
2018-12-05T11:37:11.391Z,23.05
2018-12-05T11:39:38.125Z,21.82
2018-12-05T11:42:04.830Z,20.77
2018-12-05T11:44:31.532Z,22.45
2018-12-05T11:46:58.259Z,22.85
2018-12-05T11:49:24.958Z,21.45
2018-12-05T11:51:52.881Z,22.77
2018-12-05T11:54:19.728Z,22.60
2018-12-05T11:56:46.449Z,21.25
2018-12-05T11:59:13.142Z,22.55
2018-12-05T12:01:39.838Z,22.32
2018-12-05T12:04:06.571Z,20.92
2018-12-05T12:06:33.266Z,21.65
2018-12-05T12:08:59.962Z,20.25
2018-12-05T12:11:26.782Z,21.75
2018-12-05T12:13:53.484Z,18.55
2018-12-05T12:16:20.177Z,18.75
2018-12-05T12:18:46.905Z,18.50
2018-12-05T12:21:13.600Z,19.82
2018-12-05T12:23:40.297Z,21.30
2018-12-05T12:26:07.017Z,24.12
2018-12-05T12:28:33.715Z,21.90
2018-12-05T12:31:00.406Z,20.60
2018-12-05T12:33:27.115Z,19.42
2018-12-05T12:35:53.818Z,19.12
2018-12-05T12:38:20.504Z,16.87
2018-12-05T12:40:47.222Z,20.52
2018-12-05T12:43:13.920Z,18.17
2018-12-05T12:45:40.613Z,20.60
2018-12-05T12:48:07.333Z,20.82
2018-12-05T12:50:34.039Z,27.93
2018-12-05T12:53:00.756Z,18.48
2018-12-05T12:55:27.444Z,19.67
2018-12-05T12:57:54.148Z,20.43
2018-12-05T13:00:20.877Z,19.90
2018-12-05T13:02:47.574Z,21.50
2018-12-05T13:05:14.276Z,21.62
2018-12-05T13:07:41.001Z,22.58
2018-12-05T13:10:07.701Z,21.87
2018-12-05T13:12:34.405Z,23.27
2018-12-05T13:15:01.124Z,22.13
2018-12-05T13:17:27.827Z,23.22
2018-12-05T13:19:55.539Z,22.05
2018-12-05T13:22:22.250Z,23.10
2018-12-05T13:24:48.955Z,21.75
2018-12-05T13:27:16.550Z,23.90
2018-12-05T13:29:43.252Z,25.00
2018-12-05T13:32:09.980Z,23.22
2018-12-05T13:34:36.675Z,23.95
2018-12-05T13:37:03.401Z,25.45
2018-12-05T13:39:30.120Z,37.55
2018-12-05T13:41:56.812Z,22.42
2018-12-05T13:44:23.527Z,20.02
2018-12-05T13:46:50.220Z,25.08
2018-12-05T13:49:16.914Z,22.75
2018-12-05T13:51:43.657Z,22.15
2018-12-05T13:54:10.344Z,21.55
2018-12-05T13:56:37.039Z,22.00
2018-12-05T13:59:03.764Z,20.20
2018-12-05T14:01:30.462Z,17.75
2018-12-05T14:03:57.157Z,17.57
2018-12-05T14:06:23.877Z,18.73
2018-12-05T14:08:50.582Z,20.68
2018-12-05T14:11:17.273Z,25.15
2018-12-05T14:13:44.100Z,20.65
2018-12-05T14:16:10.820Z,35.73
2018-12-05T14:18:37.525Z,21.80
2018-12-05T14:21:04.237Z,22.98
2018-12-05T14:23:30.982Z,19.42
2018-12-05T14:25:57.678Z,23.52
2018-12-05T14:28:24.385Z,20.37
2018-12-05T14:30:51.081Z,18.40
2018-12-05T14:33:17.789Z,21.70
2018-12-05T14:35:44.508Z,19.15
2018-12-05T14:38:11.201Z,20.48
2018-12-05T14:40:37.922Z,22.70
2018-12-05T14:43:04.618Z,20.85
2018-12-05T14:45:31.295Z,22.20
2018-12-05T14:47:58.028Z,25.90
2018-12-05T14:50:24.725Z,23.45
2018-12-05T14:52:51.410Z,28.05
2018-12-05T14:55:18.121Z,23.42
2018-12-05T14:57:44.848Z,23.25
2018-12-05T15:00:12.037Z,23.98
2018-12-05T15:02:38.763Z,24.00
2018-12-05T15:05:05.545Z,26.25
2018-12-05T15:07:32.233Z,24.10
2018-12-05T15:09:58.957Z,27.98
2018-12-05T15:12:25.661Z,25.82
2018-12-05T15:14:52.377Z,27.20
2018-12-05T15:17:19.072Z,27.45
2018-12-05T15:19:45.759Z,27.77
2018-12-05T15:22:12.464Z,26.62
2018-12-05T15:24:39.177Z,27.22
2018-12-05T15:27:05.893Z,23.65
2018-12-05T15:29:32.589Z,25.97
2018-12-05T15:31:59.387Z,31.30
2018-12-05T15:34:26.180Z,28.98
2018-12-05T15:36:52.863Z,25.48
2018-12-05T15:39:19.581Z,29.20
2018-12-05T15:41:46.291Z,25.75
2018-12-05T15:44:12.981Z,26.60
2018-12-05T15:46:39.733Z,24.63
2018-12-05T15:49:06.442Z,24.05
2018-12-05T15:51:33.167Z,24.87
2018-12-05T15:53:59.891Z,25.72
2018-12-05T15:56:26.590Z,26.17
2018-12-05T15:58:53.300Z,24.18
2018-12-05T16:01:19.997Z,25.52
2018-12-05T16:03:46.705Z,24.12
2018-12-05T16:06:13.421Z,26.42
2018-12-05T16:08:40.107Z,20.20
2018-12-05T16:11:06.821Z,23.25
2018-12-05T16:13:33.521Z,23.70
2018-12-05T16:16:00.237Z,23.07
2018-12-05T16:18:26.950Z,26.77
2018-12-05T16:20:53.665Z,27.87
2018-12-05T16:23:20.353Z,26.85
2018-12-05T16:25:47.065Z,24.07
2018-12-05T16:28:13.765Z,27.07
2018-12-05T16:30:40.476Z,25.27
2018-12-05T16:33:07.166Z,25.52
2018-12-05T16:35:33.863Z,27.48
2018-12-05T16:38:00.620Z,30.02
2018-12-05T16:40:27.312Z,31.50
2018-12-05T16:42:54.210Z,31.68
2018-12-05T16:45:20.937Z,36.42
2018-12-05T16:47:47.625Z,31.90
2018-12-05T16:50:14.317Z,30.35
2018-12-05T16:52:41.032Z,32.80
2018-12-05T16:55:07.742Z,22.30
2018-12-05T16:57:34.447Z,18.98
2018-12-05T17:00:01.151Z,15.88
2018-12-05T17:02:27.872Z,15.60
2018-12-05T17:04:54.568Z,14.98
2018-12-05T17:07:21.262Z,14.23
2018-12-05T17:09:47.982Z,15.53
2018-12-05T17:12:14.676Z,15.38
2018-12-05T17:14:41.389Z,15.40
2018-12-05T17:17:08.076Z,18.12
2018-12-05T17:19:34.769Z,15.65
2018-12-05T17:22:01.488Z,15.83
2018-12-05T17:24:28.187Z,13.22
2018-12-05T17:26:54.881Z,9.03
2018-12-05T17:29:21.604Z,10.15
2018-12-05T17:31:48.294Z,9.63
2018-12-05T17:34:14.998Z,10.90
2018-12-05T17:36:41.719Z,12.43
2018-12-05T17:39:08.415Z,13.95
2018-12-05T17:41:35.109Z,16.55
2018-12-05T17:44:01.816Z,18.90
2018-12-05T17:46:28.544Z,15.15
2018-12-05T17:48:55.248Z,16.87
2018-12-05T17:51:21.960Z,17.62
2018-12-05T17:53:48.665Z,20.32
2018-12-05T17:56:15.358Z,16.65
2018-12-05T17:58:42.073Z,14.63
2018-12-05T18:01:08.822Z,14.83
2018-12-05T18:03:35.622Z,16.75
2018-12-05T18:06:02.308Z,17.60
2018-12-05T18:08:29.029Z,16.45
2018-12-05T18:10:55.727Z,16.70
2018-12-05T18:13:22.423Z,16.23
2018-12-05T18:15:49.145Z,16.02
2018-12-05T18:18:15.841Z,25.85
2018-12-05T18:20:42.547Z,21.57
2018-12-05T18:23:09.268Z,25.57
2018-12-05T18:25:35.960Z,24.77
2018-12-05T18:28:02.654Z,22.93
2018-12-05T18:30:29.375Z,22.25
2018-12-05T18:32:56.079Z,16.00
2018-12-05T18:35:22.772Z,15.20
2018-12-05T18:37:49.485Z,19.00
2018-12-05T18:40:16.185Z,16.12
2018-12-05T18:42:42.905Z,14.15
2018-12-05T18:45:09.600Z,21.40
2018-12-05T18:47:36.303Z,21.60
2018-12-05T18:50:03.714Z,22.87
2018-12-05T18:52:30.404Z,22.27
2018-12-05T18:54:57.112Z,29.92
2018-12-05T18:57:23.821Z,24.40
2018-12-05T18:59:50.526Z,24.00
2018-12-05T19:02:17.255Z,25.45
2018-12-05T19:04:43.959Z,56.10
2018-12-05T19:07:10.670Z,14.98
2018-12-05T19:09:37.355Z,14.20
2018-12-05T19:12:04.086Z,15.55
2018-12-05T19:14:48.733Z,16.82
2018-12-05T19:17:15.462Z,18.52
2018-12-05T19:19:42.163Z,14.03
2018-12-05T19:22:08.859Z,12.07
2018-12-05T19:24:35.574Z,12.73
2018-12-05T19:27:02.284Z,15.45
2018-12-05T19:29:29.006Z,15.20
2018-12-05T19:31:55.724Z,23.07
2018-12-05T19:34:22.421Z,20.85
2018-12-05T19:36:49.108Z,18.73
2018-12-05T19:39:15.823Z,18.57
2018-12-05T19:41:42.522Z,16.00
2018-12-05T19:44:09.224Z,15.38
2018-12-05T19:46:35.946Z,14.45
2018-12-05T19:49:02.641Z,14.28
2018-12-05T19:51:29.368Z,12.53
2018-12-05T19:53:56.072Z,12.90
2018-12-05T19:56:22.791Z,16.15
2018-12-05T19:58:49.487Z,17.75
2018-12-05T20:01:16.181Z,17.20
2018-12-05T20:03:42.931Z,16.82
2018-12-05T20:06:09.630Z,17.45
2018-12-05T20:08:37.270Z,18.80
2018-12-05T20:11:03.971Z,11.48
2018-12-05T20:13:30.668Z,13.45
2018-12-05T20:15:57.381Z,12.35
2018-12-05T20:18:24.096Z,13.95
2018-12-05T20:20:50.788Z,11.68
2018-12-05T20:23:17.501Z,13.13
2018-12-05T20:25:44.212Z,14.30
2018-12-05T20:28:10.913Z,12.35
2018-12-05T20:30:37.616Z,15.32
2018-12-05T20:33:04.328Z,13.85
2018-12-05T20:35:31.039Z,13.93
2018-12-05T20:37:57.791Z,15.28
2018-12-05T20:40:24.515Z,17.60
2018-12-05T20:42:51.225Z,17.32
2018-12-05T20:45:17.937Z,17.35
2018-12-05T20:47:44.640Z,15.55
2018-12-05T20:50:16.797Z,16.40
2018-12-05T20:52:43.492Z,15.83
2018-12-05T20:55:10.199Z,15.35
2018-12-05T20:57:36.921Z,14.95
2018-12-05T21:00:04.289Z,15.40
2018-12-05T21:02:30.971Z,14.63
2018-12-05T21:04:57.681Z,15.78
2018-12-05T21:07:24.372Z,14.75
2018-12-05T21:09:51.081Z,14.60
2018-12-05T21:12:17.765Z,14.43
2018-12-05T21:14:44.496Z,12.95
2018-12-05T21:17:11.183Z,13.15
2018-12-05T21:19:37.905Z,11.03
2018-12-05T21:22:04.617Z,9.70
2018-12-05T21:24:31.325Z,11.63
2018-12-05T21:26:58.041Z,9.10
2018-12-05T21:29:24.733Z,10.20
2018-12-05T21:31:51.446Z,9.08
2018-12-05T21:34:18.138Z,12.23
2018-12-05T21:36:44.830Z,41.77
2018-12-05T21:39:11.557Z,24.10
2018-12-05T21:41:38.249Z,28.95
2018-12-05T21:44:04.944Z,18.07
2018-12-05T21:46:31.656Z,21.55
2018-12-05T21:48:58.359Z,16.10
2018-12-05T21:51:25.088Z,14.45
2018-12-05T21:53:51.790Z,15.83
2018-12-05T21:56:18.480Z,14.23
2018-12-05T21:58:45.189Z,14.35
2018-12-05T22:01:11.895Z,14.85
2018-12-05T22:03:38.605Z,14.30
2018-12-05T22:06:05.304Z,12.23
2018-12-05T22:08:32.013Z,12.37
2018-12-05T22:10:58.733Z,13.58
2018-12-05T22:13:25.424Z,11.38
2018-12-05T22:15:52.134Z,12.82
2018-12-05T22:18:18.852Z,12.90
2018-12-05T22:20:45.546Z,15.65
2018-12-05T22:23:12.236Z,14.43
2018-12-05T22:25:38.944Z,14.70
2018-12-05T22:28:05.633Z,16.85
2018-12-05T22:30:32.324Z,17.50
2018-12-05T22:32:59.040Z,18.32
2018-12-05T22:35:25.736Z,19.30
2018-12-05T22:37:52.436Z,28.05
2018-12-05T22:40:19.154Z,26.35
2018-12-05T22:42:45.852Z,33.98
2018-12-05T22:45:12.577Z,28.35
2018-12-05T22:47:39.276Z,17.45
2018-12-05T22:50:06.082Z,15.03
2018-12-05T22:52:32.770Z,11.57
2018-12-05T22:54:59.467Z,12.25
2018-12-05T22:57:26.190Z,10.20
2018-12-05T22:59:52.901Z,11.45
2018-12-05T23:02:19.595Z,13.25
2018-12-05T23:04:46.280Z,17.17
2018-12-05T23:07:12.984Z,17.30
2018-12-05T23:09:39.685Z,13.18
2018-12-05T23:12:06.396Z,16.35
2018-12-05T23:14:33.084Z,37.20
2018-12-05T23:16:59.772Z,23.60
2018-12-05T23:19:26.565Z,13.53
2018-12-05T23:21:53.261Z,14.30
2018-12-05T23:24:19.952Z,10.75
2018-12-05T23:26:46.660Z,12.80
2018-12-05T23:29:13.339Z,9.90
2018-12-05T23:31:40.046Z,8.43
2018-12-05T23:34:06.740Z,10.13
2018-12-05T23:36:33.424Z,9.00
2018-12-05T23:39:00.124Z,8.60
2018-12-05T23:41:26.803Z,8.83
2018-12-05T23:43:53.510Z,8.73
2018-12-05T23:46:20.217Z,8.43
2018-12-05T23:48:46.917Z,9.68
2018-12-05T23:51:13.642Z,9.45
2018-12-05T23:53:40.330Z,9.48
2018-12-05T23:56:07.053Z,10.25
2018-12-05T23:58:33.753Z,14.18
